Tiempo atmosférico en la estación meteorológica de Elgoibar, Gipuzkoa (120 m.)



Fecha
DESCASC
Temp. máxima en grados centígrados (hora)
DESCASC
Temp. mínima en grados centígrados (hora)
DESCASC
Temp. media en grados centígrados
DESCASC
Racha de viento máxima en m/sg (hora)
DESCASC
Velocidad máxima media en intervalos de 10 minutos(hora)
DESCASC
Precipitaciones diarias en mm
DESCASC
Precipitaciones de 00:00 a 06:00 en mm
DESCASC
Precipitaciones de 06:00 a 12:00 en mm
DESCASC
Precipitaciones de 12:00 a 18:00 en mm
DESCASC
Precipitaciones de 18:00 a 24:00 en mm
DESCASC
31-03-2020 6.6 (20:10) 1.1 (02:00) 3.8 3.89 (17:00) 2.22 (17:00) 2.7 0 0.6 1.7 0.4
30-03-2020 6.5 (15:20) 1 (09:40) 3.8 8.61 (08:50) 3.61 (15:50) 10.1 1.7 6.9 1.2 0.3
29-03-2020 13.8 (14:10) 2.4 (00:00) 8.1 7.5 (15:30) 3.61 (23:59) 0.8 0 0 0.1 0.7
28-03-2020 14.9 (12:20) 1.6 (00:00) 8.2 7.22 (14:30) 4.72 (14:30) 0 0 0 0 0
27-03-2020 12.9 (14:50) 0.1 (00:00) 6.5 7.5 (16:10) 4.17 (16:10) 0 0 0 0 0
26-03-2020 11 (13:20) 3.2 (00:00) 7.1 9.44 (15:00) 4.44 (12:00) 0 0 0 0 0
25-03-2020 15.3 (12:30) 5.1 (00:00) 10.2 7.22 (16:00) 3.89 (13:00) 0 0 0 0 0
24-03-2020 18.1 (13:00) 7.8 (00:00) 13 7.5 (15:10) 4.72 (15:20) 0 0 0 0 0
23-03-2020 14.4 (14:00) 8 (00:00) 11.2 6.67 (16:40) 4.17 (15:30) 0 0 0 0 0
22-03-2020 16.8 (12:20) 5.3 (07:20) 11 6.94 (14:20) 4.17 (14:30) 0 0 0 0 0
21-03-2020 19.9 (14:50) 10 (00:00) 14.9 10.28 (08:50) 3.61 (17:40) 0 0 0 0 0
20-03-2020 18.2 (15:40) 12.6 (00:00) 15.4 17.22 (04:40) 9.17 (02:30) 0 0 0 0 0
19-03-2020 21.1 (15:50) 10 (00:00) 15.6 13.61 (23:20) 6.67 (23:20) 0 0 0 0 0
18-03-2020 19.7 (14:10) 8 (00:00) 13.9 6.11 (07:10) 2.5 (06:40) 0 0 0 0 0
17-03-2020 12.4 (16:40) 9.1 (00:00) 10.8 0 (00:10) 0 (00:10) 2.7 2.4 0.2 0.1 0
16-03-2020 9.9 (14:40) 6.5 (00:00) 8.2 9.44 (10:30) 3.61 (10:30) 43.1 10.2 24.8 3 5.1
15-03-2020 20.9 (12:50) 3.1 (00:00) 12 11.39 (05:50) 6.39 (07:50) 7.4 0 0 0 7.4
14-03-2020 13.3 (14:00) 2.1 (00:00) 7.7 5.56 (17:40) 3.33 (17:40) 0 0 0 0 0
13-03-2020 11.2 (16:10) 4.2 (23:59) 7.7 6.11 (13:00) 3.61 (13:00) 2.3 1.4 0.8 0.1 0
12-03-2020 12.9 (15:00) 8.3 (00:00) 10.6 4.44 (20:00) 2.5 (16:30) 0.6 0 0.1 0 0.5
11-03-2020 16.3 (14:30) 6 (00:00) 11.1 6.67 (15:40) 4.17 (15:40) 0 0 0 0 0
10-03-2020 14.7 (13:40) 5.1 (00:00) 9.9 7.5 (15:30) 4.17 (15:30) 0 0 0 0 0
09-03-2020 11.6 (11:10) 7.2 (00:00) 9.4 12.22 (00:50) 3.33 (07:10) 6.7 3.9 1 1.8 0
08-03-2020 15.8 (15:10) 3.9 (00:00) 9.9 10.28 (19:30) 3.89 (19:30) 0.1 0 0 0 0.1
07-03-2020 11.7 (16:20) 4.9 (00:00) 8.3 8.89 (14:10) 4.72 (14:10) 12.7 3.2 3.8 5.7 0
06-03-2020 10 (12:50) 4.8 (00:00) 7.4 18.89 (14:10) 5.28 (14:10) 25.8 1.6 11.8 5.2 7.2
05-03-2020 17.2 (07:30) 8.1 (00:00) 12.7 17.5 (08:00) 6.67 (03:50) 16.4 0.2 13.8 1.4 1
04-03-2020 18.4 (15:10) 7.7 (00:00) 13 13.89 (23:40) 3.89 (23:40) 4.4 2.5 1.9 0 0
03-03-2020 15.6 (12:40) 5.4 (00:00) 10.5 24.72 (14:40) 7.22 (14:40) 9.3 0 4.2 3.1 2
02-03-2020 16.2 (04:20) 5.4 (00:00) 10.8 20.56 (04:50) 6.67 (04:50) 29.8 10.5 3.9 11.3 4.1

Gráficas

Temp. máximas Temp. mínimas Temp. medias Precipitaciones Rachas de viento máximas Velocidades máximas media en intervalos de 10 minutos

Datos horarios

Fecha y hora oficial Temperatura (ºC) Velocidad del viento (km/h) Dirección del viento Racha (km/h) Dirección de racha Precipitación (mm) Presión (hPa) Tendencia (hPa) Humedad (%)
2020-03-31 23:00:00 5.8 0 Calma -- -- 0.1 1000 0.4 95
2020-03-31 22:00:00 6.2 0 Calma -- -- 0 999.8 0.4 95
2020-03-31 21:00:00 6.3 0 Calma -- -- 0.1 999.6 0.2 94
2020-03-31 20:00:00 6.5 0 Calma 3 Norte 0 999.6 0.3 93
2020-03-31 19:00:00 6.3 3 Nordeste 13 Nordeste 0.2 999.4 -0.1 92
2020-03-31 18:00:00 6 5 Norte 13 Norte 0.1 999.4 -0.6 92
2020-03-31 17:00:00 5.8 8 Norte 14 Nordeste 0.3 999.3 -0.8 92
2020-03-31 16:00:00 5.9 6 Norte 10 Norte 0.4 999.5 -1 89
2020-03-31 15:00:00 6.4 0 Calma 5 Nordeste 0.1 1000 -0.8 89
2020-03-31 14:00:00 5.8 0 Calma 7 Noroeste 0.2 1000.1 -0.9 89
2020-03-31 13:00:00 4.6 0 Calma -- -- 0.6 1000.5 -0.1 94
2020-03-31 12:00:00 3.9 0 Calma -- -- 0.1 1000.8 0.3 95
2020-03-31 11:00:00 3.4 0 Calma -- -- 0 1001 0.5 96
2020-03-31 10:00:00 2.6 0 Calma -- -- 0 1000.6 0.2 96
2020-03-31 09:00:00 2.1 0 Calma -- -- 0.1 1000.5 -0.2 96
2020-03-31 08:00:00 2 0 Calma -- -- 0.4 1000.5 -0.1 96
2020-03-31 07:00:00 1.9 0 Calma -- -- 0 1000.4 -0.9 95
2020-03-31 06:00:00 1.7 0 Calma -- -- 0 1000.7 -1 95
2020-03-31 05:00:00 1.5 0 Calma 5 Este 0 1000.6 -1.5 95
2020-03-31 04:00:00 1.5 3 Este 6 Este 0 1001.3 -1.1 95
2020-03-31 03:00:00 1.7 0 Calma 7 Este 0 1001.7 -1.2 95
2020-03-31 02:00:00 1.1 2 Este 7 Este 0 1002.1 -1.4 94
2020-03-31 01:00:00 1.6 0 Calma 6 Este 0 1002.4 -1.2 93
2020-03-31 00:00:00 2.8 0 Calma 12 Sudoeste 0 1002.9 -0.7 93
2020-03-30 23:00:00 3.1 3 Sudoeste 8 Sudoeste 0 1003.5 0.2 92
2020-03-30 22:00:00 3.2 0 Calma 12 Sudoeste 0 1003.6 0 90
2020-03-30 21:00:00 3.4 0 Calma 10 Oeste 0.1 1003.6 -0.1 89
2020-03-30 20:00:00 3.7 5 Sudoeste 13 Sudoeste 0 1003.3 -0.6 88
2020-03-30 19:00:00 3.8 3 Este 9 Noroeste 0.2 1003.6 -1 86
2020-03-30 18:00:00 3.9 10 Noroeste 19 Noroeste 0 1003.7 -1.1 85
2020-03-30 17:00:00 5.1 3 Sudeste 17 Oeste 0.1 1003.9 -1.7 83
2020-03-30 16:00:00 3.3 10 Oeste 27 Oeste 0.6 1004.6 -1.2 83
2020-03-30 15:00:00 6 2 Sudoeste 14 Sudoeste 0.1 1004.8 -2.1 86
2020-03-30 14:00:00 5.2 4 Sudeste 13 Sudeste 0.4 1005.6 -1.2 89
2020-03-30 13:00:00 5.3 2 Este 10 Sudoeste 0 1005.8 -1 92
2020-03-30 12:00:00 2 0 Calma 20 Oeste 2.5 1006.9 -0.4 91
2020-03-30 11:00:00 3.7 0 Calma 6 Nordeste 2.3 1006.8 -0.1 91
2020-03-30 10:00:00 1.4 5 Este 12 Sudeste 1.1 1006.8 0.3 92
2020-03-30 09:00:00 2.2 11 Nordeste 31 Nordeste 0.7 1007.3 0.3 92
2020-03-30 08:00:00 3.1 5 Este 18 Este 0.2 1006.9 -0.8 93
2020-03-30 07:00:00 3 3 Sudeste 8 Este 0.1 1006.5 -1.6 93
2020-03-30 06:00:00 3.2 4 Sudeste 8 Sudeste 0.7 1007 -1.7 92
2020-03-30 05:00:00 3.3 0 Calma -- -- 0.2 1007.7 -1.3 90
2020-03-30 04:00:00 3.4 0 Calma -- -- 0 1008.1 -0.9 89
2020-03-30 03:00:00 4.3 0 Calma 16 Norte 0.2 1008.7 -0.3 89
2020-03-30 02:00:00 4.6 9 Norte 24 Nordeste 0.3 1009 0.2 88
2020-03-30 01:00:00 5 10 Nordeste 19 Nordeste 0.3 1009 0.5 89
2020-03-30 00:00:00 5.1 13 Nordeste 25 Norte 0.5 1009 1.2 90
2020-03-29 23:00:00 5.6 10 Norte 17 Nordeste 0.2 1008.8 1.5 89
2020-03-29 22:00:00 6.9 4 Norte 15 Noroeste 0 1008.5 1.4 86
2020-03-29 21:00:00 7.8 5 Noroeste 19 Noroeste 0 1007.8 0.8 83
2020-03-29 20:00:00 8.4 6 Noroeste 21 Norte 0 1007.3 0.1 83
2020-03-29 19:00:00 8.7 6 Noroeste 19 Noroeste 0 1007.1 0 85
2020-03-29 18:00:00 8.9 4 Noroeste 14 Noroeste 0 1007 0.2 87
2020-03-29 17:00:00 8.8 4 Norte 17 Noroeste 0 1007.2 0.5 88
2020-03-29 16:00:00 9.1 5 Norte 27 Norte 0.1 1007.1 -0.2 86
2020-03-29 15:00:00 11.6 9 Norte 27 Norte 0 1006.8 -0.9 62
2020-03-29 14:00:00 13.6 2 Oeste 15 Oeste 0 1006.7 -1.2 59
2020-03-29 13:00:00 12.1 3 Noroeste 13 Noroeste 0 1007.3 -0.7 62
2020-03-29 12:00:00 12.5 5 Sudeste 9 Sudeste 0 1007.7 -0.4 68
2020-03-29 11:00:00 8.4 0 Calma 8 Sudoeste 0 1007.9 0.4 79
2020-03-29 10:00:00 5.9 0 Calma 6 Sur 0 1008 0.7 90
2020-03-29 09:00:00 2.9 3 Sur 11 Sudoeste 0 1008.1 1 92
2020-03-29 08:00:00 2.6 0 Calma 7 Sur 0 1007.5 0.4 91
2020-03-29 07:00:00 2.6 0 Calma 13 Sudoeste 0 1007.3 -0.2 90
2020-03-29 06:00:00 3.3 0 Calma 10 Sudoeste 0 1007.1 -0.6 89
2020-03-29 05:00:00 3.9 4 Sudoeste 13 Sudoeste 0 1007.1 -0.6 89
2020-03-29 03:00:00 3.9 3 Sur 8 Sudoeste 0 1007.7 0.3 87
2020-03-29 01:00:00 4.4 0 Calma 8 Sudoeste 0 1007.7 0.3 85
2020-03-29 00:00:00 5.2 0 Calma 8 Sudoeste 0 1007.5 0.5 84
2020-03-28 23:00:00 6 0 Calma 5 Sudoeste 0 1007.4 1.3 81
2020-03-28 22:00:00 6.6 0 Calma 8 Este 0 1007.4 2 78
2020-03-28 21:00:00 7.9 0 Calma 6 Este 0 1007 2.3 73
2020-03-28 20:00:00 9.9 0 Calma 15 Nordeste 0 1006.1 1.9 63
2020-03-28 19:00:00 11.2 8 Norte 19 Norte 0 1005.4 1 56
2020-03-28 18:00:00 12.2 10 Norte 21 Noroeste 0 1004.7 0.3 53
2020-03-28 17:00:00 13.5 10 Norte 22 Norte 0 1004.2 -0.5 45
2020-03-28 16:00:00 13.2 14 Norte 23 Norte 0 1004.4 -0.3 45
2020-03-28 15:00:00 14.1 15 Norte 26 Norte 0 1004.4 -0.6 43
2020-03-28 14:00:00 14.1 14 Norte 23 Norte 0 1004.7 -0.6 43
2020-03-28 13:00:00 14.4 12 Norte 22 Norte 0 1004.7 -0.8 47
2020-03-28 12:00:00 14.4 7 Norte 13 Norte 0 1005 -0.4 53
2020-03-28 11:00:00 12.8 0 Calma 7 Este 0 1005.3 0.2 64
2020-03-28 10:00:00 9 0 Calma 5 Nordeste 0 1005.5 1.1 80
2020-03-28 09:00:00 5.3 0 Calma 8 Sudoeste 0 1005.4 1.3 94
2020-03-28 08:00:00 2.5 0 Calma 3 Sur 0 1005.1 1.2 95
2020-03-28 07:00:00 1.7 2 Sur 12 Sudoeste 0 1004.4 0.8 94
2020-03-28 06:00:00 2 0 Calma 9 Sudoeste 0 1004.1 0.4 93
2020-03-28 05:00:00 2.2 0 Calma 6 Sudoeste 0 1003.9 -0.1 93
2020-03-28 04:00:00 2.5 0 Calma 10 Sudoeste 0 1003.6 -0.2 92
2020-03-28 03:00:00 2.8 0 Calma 12 Sudoeste 0 1003.7 -0.1 90
2020-03-28 02:00:00 3.4 2 Sur 9 Sudoeste 0 1004 0.4 90
2020-03-28 01:00:00 3.8 2 Sur 8 Sudoeste 0 1003.8 0.5 88
2020-03-28 00:00:00 4.5 3 Sudoeste 8 Sudoeste 0 1003.8 0.9 87
2020-03-27 23:00:00 5 0 Calma 7 Sudoeste 0 1003.6 1.3 84
2020-03-27 22:00:00 5.7 2 Sudoeste 8 Este 0 1003.3 1.7 81
2020-03-27 21:00:00 6.1 0 Calma 9 Este 0 1002.9 2.1 77
2020-03-27 20:00:00 7.6 5 Este 13 Norte 0 1002.3 1.9 71
2020-03-27 19:00:00 9.2 6 Noroeste 18 Norte 0 1001.6 1.2 65
2020-03-27 18:00:00 9.8 11 Norte 24 Norte 0 1000.8 0.6 62
2020-03-27 17:00:00 11 12 Norte 27 Norte 0 1000.4 -0.2 59
2020-03-27 16:00:00 11.1 14 Norte 26 Noroeste 0 1000.4 -0.8 54
2020-03-27 15:00:00 12.1 10 Norte 19 Noroeste 0 1000.2 -1.3 47
2020-03-27 14:00:00 12.3 9 Norte 22 Norte 0 1000.6 -1.4 53
2020-03-27 13:00:00 11.5 12 Norte 21 Norte 0 1001.2 -1.1 51
2020-03-27 12:00:00 12.2 0 Calma 10 Noroeste 0 1001.5 -0.5 51
2020-03-27 11:00:00 10.4 0 Calma 5 Norte 0 1002 0.1 60
2020-03-27 10:00:00 6.5 0 Calma 6 Nordeste 0 1002.3 0.6 74
2020-03-27 09:00:00 3.8 0 Calma 8 Este 0 1002 0.7 86
2020-03-27 08:00:00 1 0 Calma 14 Sur 0 1001.9 1.1 90
2020-03-27 07:00:00 0.3 3 Sur 9 Sudoeste 0 1001.7 1.1 89
2020-03-27 06:00:00 0.2 0 Calma 8 Sudoeste 0 1001.3 0.7 88
2020-03-27 05:00:00 0.7 2 Sur 9 Sudoeste 0 1000.8 0.2 86
2020-03-27 04:00:00 1 0 Calma 10 Sudoeste 0 1000.6 0.2 84
2020-03-27 03:00:00 1.7 0 Calma 14 Sudoeste 0 1000.6 0.3 81
2020-03-27 02:00:00 2.3 4 Sur 11 Sudoeste 0 1000.6 0.1 78
2020-03-27 01:00:00 2.7 0 Calma 12 Sudoeste 0 1000.4 0 76
2020-03-27 00:00:00 3.2 2 Sudeste 13 Sudoeste 0 1000.3 0.3 73
2020-03-26 23:00:00 3.7 4 Sudoeste 10 Sudoeste 0 1000.5 0.8 70
2020-03-26 22:00:00 4.7 0 Calma 7 Sudoeste 0 1000.4 1.2 66
2020-03-26 21:00:00 5.9 0 Calma 7 Oeste 0 1000 1.4 59
2020-03-26 20:00:00 7.8 4 Oeste 15 Norte 0 999.7 1.2 54
2020-03-26 19:00:00 8.6 8 Noroeste 19 Norte 0 999.2 0.6 53
2020-03-26 18:00:00 9.6 9 Oeste 20 Noroeste 0 998.6 0.3 53
2020-03-26 17:00:00 9.7 7 Nordeste 28 Nordeste 0 998.5 0.1 53
2020-03-26 16:00:00 10.4 9 Noroeste 32 Noroeste 0 998.6 -0.4 47
2020-03-26 15:00:00 10.5 12 Norte 34 Noroeste 0 998.3 -1.1 47
2020-03-26 14:00:00 10.8 7 Noroeste 30 Noroeste 0 998.4 -0.8 50
2020-03-26 13:00:00 10.4 9 Noroeste 33 Nordeste 0 999 -0.1 52
2020-03-26 12:00:00 9.7 16 Nordeste 27 Nordeste 0 999.4 0.7 57
2020-03-26 11:00:00 10.1 8 Noroeste 32 Oeste 0 999.2 0.7 53
2020-03-26 10:00:00 10.3 9 Norte 33 Norte 0 999.1 0.8 56
2020-03-26 09:00:00 9.9 6 Noroeste 22 Oeste 0 998.7 0.3 61
2020-03-26 08:00:00 9.2 3 Sudoeste 8 Sur 0 998.5 0 70
2020-03-26 07:00:00 8.8 2 Noroeste 18 Oeste 0 998.3 -0.7 72
2020-03-26 06:00:00 8.8 9 Sudoeste 20 Oeste 0 998.4 -0.8 72
2020-03-26 05:00:00 8.9 9 Oeste 27 Oeste 0 998.5 -1.5 72
2020-03-26 04:00:00 8.8 10 Oeste 24 Sudoeste 0 999 -1.4 71
2020-03-26 03:00:00 8.7 10 Sudoeste 25 Oeste 0 999.2 -1.6 69
2020-03-26 02:00:00 8.8 5 Oeste 20 Oeste 0 1000 -1.3 69
2020-03-26 01:00:00 8.8 6 Sudoeste 14 Sudoeste 0 1000.4 -0.9 68
2020-03-26 00:00:00 8.5 4 Oeste 14 Sudoeste 0 1000.8 -0.7 68
2020-03-25 23:00:00 8.1 7 Sudoeste 14 Sudoeste 0 1001.3 0.1 68
2020-03-25 22:00:00 7.9 3 Sudoeste 13 Sudoeste 0 1001.3 0.7 68
2020-03-25 21:00:00 8.9 5 Sudoeste 16 Sudoeste 0 1001.5 1.6 63
2020-03-25 20:00:00 9 7 Oeste 19 Noroeste 0 1001.2 1.6 63
2020-03-25 19:00:00 9.7 5 Oeste 17 Noroeste 0 1000.6 1 65
2020-03-25 18:00:00 11.2 9 Norte 23 Oeste 0 999.9 0 59
2020-03-25 17:00:00 14.1 12 Oeste 25 Oeste 0 999.6 -0.6 49
2020-03-25 16:00:00 14.8 8 Noroeste 26 Noroeste 0 999.6 -0.8 56
2020-03-25 15:00:00 14 9 Norte 23 Nordeste 0 999.9 -0.6 64
2020-03-25 14:00:00 13.7 10 Norte 25 Norte 0 1000.2 -0.6 66
2020-03-25 13:00:00 14.4 14 Noroeste 25 Noroeste 0 1000.4 -0.7 59
2020-03-25 12:00:00 14.5 9 Norte 18 Norte 0 1000.5 -1 67
2020-03-25 11:00:00 14.7 0 Calma -- -- 0 1000.8 -0.9 70
2020-03-25 10:00:00 10.7 0 Calma -- -- 0 1001.1 -0.3 84
2020-03-25 09:00:00 8.5 0 Calma 12 Oeste 0 1001.5 0.1 95
2020-03-25 08:00:00 6 3 Sur 11 Sudoeste 0 1001.7 0.1 95
2020-03-25 07:00:00 5.5 2 Sur 15 Sudoeste 0 1001.4 -0.3 95
2020-03-25 06:00:00 5.4 5 Sur 14 Sur 0 1001.4 -0.6 95
2020-03-25 05:00:00 5.6 0 Calma -- -- 0 1001.6 -0.8 94
2020-03-25 04:00:00 5.9 0 Calma 10 Sur 0 1001.7 -0.7 93
2020-03-25 03:00:00 6.6 5 Sudoeste 12 Sudoeste 0 1002 -0.5 92
2020-03-25 02:00:00 6.7 0 Calma 9 Sur 0 1002.4 -0.6 91
2020-03-25 01:00:00 7.3 0 Calma 12 Sudoeste 0 1002.4 -0.7 90
2020-03-25 00:00:00 7.8 2 Sudoeste 11 Sudoeste 0 1002.5 -0.7 88
2020-03-24 23:00:00 8.3 0 Calma -- -- 0 1003 0.3 86
2020-03-24 22:00:00 8.9 0 Calma -- -- 0 1003.1 0.9 82
2020-03-24 21:00:00 9.9 0 Calma 4 Sudeste 0 1003.2 1 78
2020-03-24 20:00:00 11.5 0 Calma 16 Norte 0 1002.7 0.4 73
2020-03-24 19:00:00 13.2 9 Norte 17 Norte 0 1002.2 -0.2 60
2020-03-24 18:00:00 14.8 8 Norte 18 Norte 0 1002.2 -0.6 56
2020-03-24 17:00:00 15.5 11 Norte 24 Noroeste 0 1002.3 -1.1 53
2020-03-24 16:00:00 15.8 15 Norte 27 Norte 0 1002.4 -1.5 54
2020-03-24 15:00:00 16.3 15 Norte 26 Norte 0 1002.8 -2 52
2020-03-24 14:00:00 16.5 12 Norte 21 Noroeste 0 1003.4 -1.8 54
2020-03-24 13:00:00 17.8 4 Sudeste 10 Norte 0 1003.9 -1.4 53
2020-03-24 12:00:00 16.5 3 Sudoeste 11 Oeste 0 1004.8 -1 56
2020-03-24 11:00:00 14.4 0 Calma 4 Noroeste 0 1005.2 -0.5 74
2020-03-24 10:00:00 12.5 2 Sudeste 7 Este 0 1005.3 0 95
2020-03-24 09:00:00 9.4 0 Calma -- -- 0 1005.8 0.7 97
2020-03-24 08:00:00 8.7 0 Calma -- -- 0 1005.7 0.7 97
2020-03-24 07:00:00 8.4 0 Calma 9 Este 0 1005.3 0.2 96
2020-03-24 06:00:00 8.2 0 Calma 11 Este 0 1005.1 0.2 96
2020-03-24 05:00:00 8.3 5 Nordeste 9 Norte 0 1005 0 96
2020-03-24 04:00:00 8.2 0 Calma -- -- 0 1005.1 -0.1 96
2020-03-24 03:00:00 7.8 0 Calma -- -- 0 1004.9 -0.5 95
2020-03-24 02:00:00 8 0 Calma 9 Sudoeste 0 1005 -0.2 94
2020-03-24 01:00:00 9 4 Sudoeste 12 Sudoeste 0 1005.2 -0.1 93
2020-03-24 00:00:00 9.4 2 Sudoeste 10 Sudoeste 0 1005.4 0.2 92
2020-03-23 23:00:00 10.1 0 Calma -- -- 0 1005.2 0.4 89
2020-03-23 22:00:00 10.9 0 Calma -- -- 0 1005.3 1.1 87
2020-03-23 21:00:00 11.2 0 Calma 8 Este 0 1005.2 1.3 84
2020-03-23 20:00:00 11.7 3 Nordeste 14 Nordeste 0 1004.8 1.2 80
2020-03-23 19:00:00 11.7 8 Norte 17 Norte 0 1004.2 0.9 80
2020-03-23 18:00:00 12 11 Norte 24 Norte 0 1003.9 0.4 78
2020-03-23 17:00:00 12.7 12 Norte 24 Norte 0 1003.6 -0.3 74
2020-03-23 16:00:00 13.5 13 Norte 24 Noroeste 0 1003.3 -1.6 72
2020-03-23 15:00:00 13.2 15 Norte 23 Norte 0 1003.5 -1.9 72
2020-03-23 14:00:00 14.1 6 Norte 12 Norte 0 1003.9 -1.5 71
2020-03-23 13:00:00 13.2 2 Norte 7 Norte 0 1004.9 -0.3 75
2020-03-23 12:00:00 11.9 0 Calma 7 Norte 0 1005.4 0.6 81
2020-03-23 11:00:00 11.7 0 Calma 2 Nordeste 0 1005.4 1 86
2020-03-23 10:00:00 10.7 0 Calma 5 Este 0 1005.2 1.4 92
2020-03-23 09:00:00 9.3 0 Calma 0 Calma 0 1004.8 1.4 92
2020-03-23 08:00:00 8.5 0 Calma -- -- 0 1004.4 1.4 92
2020-03-23 07:00:00 8.3 0 Calma 4 Este 0 1003.8 0.8 92
2020-03-23 06:00:00 8.9 2 Noroeste 7 Este 0 1003.4 0.6 92
2020-03-23 05:00:00 8.7 0 Calma 6 Sudoeste 0 1003 0 92
2020-03-23 04:00:00 8.8 0 Calma 8 Sudoeste 0 1003 0.5 90
2020-03-23 03:00:00 9.5 4 Sudoeste 11 Sudoeste 0 1002.8 0.3 89
2020-03-23 02:00:00 9.4 3 Sudoeste 6 Sudoeste 0 1003 0.6 90
2020-03-23 01:00:00 9.6 4 Sudoeste 11 Sudoeste 0 1002.5 0.5 89
2020-03-23 00:00:00 10.1 0 Calma 8 Sudoeste 0 1002.5 1 89
2020-03-22 23:00:00 10.1 0 Calma -- -- 0 1002.4 1.6 87
2020-03-22 22:00:00 10.2 0 Calma 6 Este 0 1002 1.8 85
2020-03-22 21:00:00 11.3 0 Calma 7 Norte 0 1001.5 2 82
2020-03-22 20:00:00 11.9 6 Norte 9 Norte 0 1000.8 1.5 80
2020-03-22 19:00:00 12.6 4 Nordeste 10 Nordeste 0 1000.2 1.2 76
2020-03-22 18:00:00 12.7 6 Nordeste 16 Norte 0 999.5 0.6 75
2020-03-22 17:00:00 12.9 12 Norte 21 Norte 0 999.3 0.7 74
2020-03-22 16:00:00 13.5 11 Norte 22 Nordeste 0 999 0.1 71
2020-03-22 15:00:00 14.4 12 Norte 25 Norte 0 998.9 -0.2 69
2020-03-22 14:00:00 15.4 10 Norte 18 Norte 0 998.6 -0.8 66
2020-03-22 13:00:00 15.6 9 Norte 19 Norte 0 998.9 -0.8 66
2020-03-22 12:00:00 16.1 0 Calma 8 Oeste 0 999.1 0 61
2020-03-22 11:00:00 13.8 0 Calma 5 Sudeste 0 999.4 0.6 69
2020-03-22 10:00:00 9.6 0 Calma 5 Este 0 999.7 1.3 82
2020-03-22 09:00:00 7.4 0 Calma 5 Sudoeste 0 999.1 1.2 89
2020-03-22 08:00:00 5.8 0 Calma 9 Sur 0 998.8 1.4 90
2020-03-22 07:00:00 5.5 0 Calma 7 Sudoeste 0 998.4 1.2 87
2020-03-22 06:00:00 6.3 2 Sudoeste 9 Sudoeste 0 997.9 0.7 86
2020-03-22 05:00:00 6.7 0 Calma 16 Sudoeste 0 997.4 0.2 83
2020-03-22 04:00:00 7.5 2 Sudoeste 21 Sudoeste 0 997.2 -0.1 79
2020-03-22 03:00:00 8.4 13 Sudoeste 21 Sudoeste 0 997.2 0.1 75
2020-03-22 02:00:00 9.1 10 Sudoeste 23 Oeste 0 997.2 0.2 72
2020-03-22 01:00:00 9.7 11 Sudoeste 23 Sudoeste 0 997.3 0.5 69
2020-03-22 00:00:00 10.2 4 Sudoeste 13 Sudoeste 0 997.1 0.8 66
2020-03-21 23:00:00 10.4 0 Calma 13 Sur 0 997 1.5 64
2020-03-21 22:00:00 10.4 0 Calma 6 Nordeste 0 996.8 1.9 66
2020-03-21 21:00:00 11.5 0 Calma 5 Sur 0 996.3 1.8 61
2020-03-21 20:00:00 13.5 0 Calma 12 Norte 0 995.5 1.2 55
2020-03-21 19:00:00 16.5 4 Sudeste 19 Este 0 994.9 0.2 44
2020-03-21 18:00:00 18 12 Este 22 Este 0 994.5 -0.4 41
2020-03-21 17:00:00 18.9 9 Este 22 Este 0 994.3 -1.4 40
2020-03-21 16:00:00 19.5 8 Este 20 Sudeste 0 994.7 -1.6 39
2020-03-21 15:00:00 19.4 12 Este 22 Este 0 994.9 -1.9 40
2020-03-21 14:00:00 19.1 8 Este 25 Este 0 995.7 -1.6 42
2020-03-21 13:00:00 18.7 4 Oeste 18 Sudoeste 0 996.3 -1.5 43
2020-03-21 12:00:00 17.4 5 Noroeste 17 Nordeste 0 996.8 -1.1 45
2020-03-21 11:00:00 16.1 3 Oeste 16 Este 0 997.3 -0.6 47
2020-03-21 10:00:00 14.7 2 Norte 24 Este 0 997.8 -0.2 51
2020-03-21 09:00:00 13.6 4 Sudeste 37 Sudeste 0 997.9 0 52
2020-03-21 08:00:00 12.2 2 Norte 21 Sur 0 997.9 -0.3 54
2020-03-21 07:00:00 12.2 4 Norte 16 Nordeste 0 998 -0.2 56
2020-03-21 06:00:00 12.8 6 Noroeste 32 Sudoeste 0 997.9 -0.6 56
2020-03-21 05:00:00 13 2 Noroeste 22 Este 0 998.2 -0.4 57
2020-03-21 04:00:00 13.2 4 Noroeste 20 Noroeste 0 998.2 -0.9 57
2020-03-21 03:00:00 12.9 0 Calma 15 Oeste 0 998.5 -1 59
2020-03-21 02:00:00 13.2 2 Sudoeste 14 Oeste 0 998.6 -1 58
2020-03-21 01:00:00 14.2 4 Oeste 19 Sudeste 0 999.1 -0.6 56
2020-03-21 00:00:00 14.7 5 Sur 32 Sudoeste 0 999.5 -0.4 56
2020-03-20 23:00:00 14.2 4 Noroeste 18 Noroeste 0 999.6 -0.3 57
2020-03-20 22:00:00 14 7 Noroeste 15 Norte 0 999.7 -0.2 59
2020-03-20 21:00:00 12.7 0 Calma 8 Sudoeste 0 999.9 0.4 60
2020-03-20 20:00:00 14.3 0 Calma 21 Sudeste 0 999.9 0.5 52
2020-03-20 19:00:00 15.5 3 Sur 15 Sudeste 0 999.9 0.4 48
2020-03-20 18:00:00 16.8 9 Este 32 Este 0 999.5 -0.4 44
2020-03-20 17:00:00 17.4 11 Sudeste 44 Este 0 999.4 -0.7 41
2020-03-20 16:00:00 17.7 11 Este 40 Este 0 999.5 -1.3 41
2020-03-20 15:00:00 18 7 Este 37 Sudeste 0 999.9 -1.1 41
2020-03-20 14:00:00 17.9 5 Norte 22 Nordeste 0 1000.1 -1.2 42
2020-03-20 13:00:00 17.6 9 Este 41 Este 0 1000.8 -0.4 41
2020-03-20 12:00:00 16.5 22 Este 40 Sudeste 0 1001 -0.2 40
2020-03-20 11:00:00 15.9 10 Este 44 Sudeste 0 1001.3 0.2 41
2020-03-20 10:00:00 15.3 5 Sudeste 59 Sudeste 0 1001.2 0.3 41
2020-03-20 09:00:00 14.7 3 Sudeste 40 Sudeste 0 1001.2 0.3 42
2020-03-20 08:00:00 13.5 4 Nordeste 25 Oeste 0 1001.1 0.4 44
2020-03-20 07:00:00 13.7 7 Norte 38 Sudeste 0 1000.9 0.2 44
2020-03-20 06:00:00 14 10 Este 53 Sudeste 0 1000.9 -0.1 42
2020-03-20 05:00:00 14.4 33 Sudeste 62 Sudeste 0 1000.7 -0.4 42
2020-03-20 04:00:00 14.7 23 Sudeste 52 Este 0 1000.7 -0.7 42
2020-03-20 03:00:00 14.9 21 Este 61 Sudeste 0 1001 -0.7 44
2020-03-20 02:00:00 15.4 26 Este 53 Sudeste 0 1001.1 -0.8 45
2020-03-20 01:00:00 15.7 15 Este 42 Sudeste 0 1001.4 -0.9 48
2020-03-20 00:00:00 15.8 13 Este 49 Este 0 1001.7 -0.6 47
2020-03-19 23:00:00 16 15 Este 40 Este 0 1001.9 -0.2 48
2020-03-19 22:00:00 15.2 6 Este 19 Este 0 1002.3 0.4 45
2020-03-19 21:00:00 15.5 0 Calma 20 Este 0 1002.3 0.4 42
2020-03-19 20:00:00 17.6 15 Este 28 Sudeste 0 1002.1 0.1 38
2020-03-19 19:00:00 18.2 10 Sudeste 28 Este 0 1001.9 -0.3 39
2020-03-19 18:00:00 19 10 Este 33 Este 0 1001.9 -0.8 38
2020-03-19 17:00:00 20.1 11 Este 28 Sudeste 0 1002 -1.4 36
2020-03-19 16:00:00 20.7 15 Este 33 Este 0 1002.2 -2.1 36
2020-03-19 15:00:00 20.3 15 Este 31 Este 0 1002.7 -2.3 40
2020-03-19 14:00:00 20.2 19 Este 35 Este 0 1003.4 -2.4 43
2020-03-19 13:00:00 20.5 4 Este 21 Nordeste 0 1004.3 -2.1 44
2020-03-19 12:00:00 19.9 0 Calma 26 Oeste 0 1005 -1.3 48
2020-03-19 11:00:00 16.6 6 Sudoeste 24 Sudoeste 0 1005.8 -0.2 60
2020-03-19 10:00:00 13.2 11 Sudoeste 23 Sudoeste 0 1006.4 0.4 74
2020-03-19 09:00:00 10.7 13 Sudoeste 26 Sudoeste 0 1006.3 0.4 83
2020-03-19 08:00:00 10.6 11 Sudoeste 26 Sudoeste 0 1006 -0.1 83
2020-03-19 07:00:00 10.1 9 Sur 24 Sudoeste 0 1006 -0.4 85
2020-03-19 06:00:00 10.2 13 Sudoeste 22 Sudoeste 0 1005.9 -1.1 84
2020-03-19 05:00:00 11.3 10 Sudoeste 23 Sudoeste 0 1006.1 -1.6 83
2020-03-19 04:00:00 11.4 13 Sudoeste 22 Sudoeste 0 1006.4 -1.5 82
2020-03-19 03:00:00 11.1 8 Sudoeste 21 Sudoeste 0 1007 -1.5 89
2020-03-19 02:00:00 10.2 5 Sur 12 Sudoeste 0 1007.7 -1.1 92
2020-03-19 01:00:00 10.4 0 Calma 10 Sudoeste 0 1007.9 -1.1 91
2020-03-19 00:00:00 10.6 0 Calma 8 Sudoeste 0 1008.5 -0.5 90
2020-03-18 23:00:00 11.2 0 Calma 9 Sur 0 1008.8 -0.2 89
2020-03-18 22:00:00 11.9 0 Calma -- -- 0 1009 0 86
2020-03-18 21:00:00 12.8 0 Calma -- -- 0 1009 0.3 80
2020-03-18 20:00:00 13.6 0 Calma -- -- 0 1009 0.4 71
2020-03-18 19:00:00 15 0 Calma 7 Nordeste 0 1009 0.1 65
2020-03-18 18:00:00 15.9 5 Nordeste 14 Nordeste 0 1008.7 -0.7 63
2020-03-18 17:00:00 16.6 6 Norte 15 Nordeste 0 1008.6 -1.5 62
2020-03-18 16:00:00 17.2 6 Norte 16 Norte 0 1008.9 -2.2 62
2020-03-18 15:00:00 18.3 6 Norte 11 Noroeste 0 1009.4 -2.7 58
2020-03-18 14:00:00 19.4 2 Sur 8 Sudoeste 0 1010.1 -2.5 56
2020-03-18 13:00:00 17.5 0 Calma -- -- 0 1011.1 -1.9 65
2020-03-18 12:00:00 14.7 0 Calma 10 Sudoeste 0 1012.1 -1 81
2020-03-18 11:00:00 12.1 3 Sudoeste 14 Sudoeste 0 1012.6 -0.3 92
2020-03-18 10:00:00 10 3 Sudoeste 12 Sudoeste 0 1013 0.1 95
2020-03-18 09:00:00 8.9 7 Sudoeste 13 Sudoeste 0 1013.1 0.2 96
2020-03-18 08:00:00 8.4 0 Calma 22 Sudoeste 0 1012.9 0.2 96
2020-03-18 07:00:00 8.5 6 Sudoeste 18 Sudoeste 0 1012.9 -0.2 96
2020-03-18 06:00:00 8.4 5 Sur 14 Sudoeste 0 1012.9 -0.9 96
2020-03-18 05:00:00 8.5 4 Sudoeste 20 Sudoeste 0 1012.7 -1.7 96
2020-03-18 04:00:00 8.7 4 Sur 14 Sudoeste 0 1013.1 -1.8 95
2020-03-18 03:00:00 8.3 0 Calma -- -- 0 1013.8 -1.5 95
2020-03-18 02:00:00 8.7 0 Calma -- -- 0 1014.4 -1.3 94
2020-03-18 01:00:00 9 0 Calma -- -- 0 1014.9 -1 94
2020-03-18 00:00:00 9.3 0 Calma -- -- 0 1015.3 -0.5 93
2020-03-17 23:00:00 9.9 0 Calma -- -- 0 1015.7 0.3 92
2020-03-17 22:00:00 10.4 0 Calma -- -- 0 1015.9 0.9 92
2020-03-17 21:00:00 10.6 0 Calma -- -- 0 1015.8 1.1 90
2020-03-17 20:00:00 10.7 0 Calma -- -- 0 1015.4 0.9 88
2020-03-17 19:00:00 11.5 0 Calma -- -- 0 1015 0.3 85
2020-03-17 18:00:00 12 0 Calma -- -- 0 1014.7 -0.4 82
2020-03-17 17:00:00 12.3 0 Calma -- -- 0 1014.5 -0.8 82
2020-03-17 16:00:00 11.9 0 Calma -- -- 0 1014.7 -0.9 83
2020-03-17 15:00:00 11.7 0 Calma -- -- 0 1015.1 -0.4 89
2020-03-17 14:00:00 10.8 0 Calma -- -- 0 1015.3 -0.1 94
2020-03-17 13:00:00 10.3 0 Calma -- -- 0.1 1015.6 0.6 97
2020-03-17 12:00:00 10 0 Calma -- -- 0.1 1015.5 1.1 97
2020-03-17 11:00:00 10.1 0 Calma -- -- 0 1015.4 1.2 97
2020-03-17 10:00:00 9.9 0 Calma -- -- 0 1015 1.4 97
2020-03-17 09:00:00 9.6 0 Calma -- -- 0 1014.4 1.5 97
2020-03-17 08:00:00 9.3 0 Calma -- -- 0 1014.2 1.9 97
2020-03-17 07:00:00 9.4 0 Calma -- -- 0.1 1013.6 1.7 97
2020-03-17 06:00:00 9.3 0 Calma -- -- 0.4 1012.9 1.1 97
2020-03-17 05:00:00 9.4 0 Calma -- -- 1 1012.3 0.4 97
2020-03-17 04:00:00 9.2 0 Calma -- -- 0.2 1011.9 0.1 96
2020-03-17 03:00:00 9.1 0 Calma -- -- 0.4 1011.8 0.3 96
2020-03-17 02:00:00 9.2 0 Calma -- -- 0.1 1011.9 0.6 96
2020-03-17 01:00:00 9.3 0 Calma -- -- 0.3 1011.8 0.9 96
2020-03-17 00:00:00 9.1 0 Calma -- -- 0.2 1011.5 1.7 96
2020-03-16 23:00:00 9 0 Calma -- -- 0.7 1011.3 2.1 96
2020-03-16 22:00:00 9 0 Calma -- -- 0.5 1010.9 2.9 95
2020-03-16 21:00:00 8.9 0 Calma -- -- 0.6 1009.8 2.4 95
2020-03-16 20:00:00 9 0 Calma 10 Este 1.3 1009.2 2.2 95
2020-03-16 19:00:00 8.9 6 Nordeste 11 Norte 1.8 1008 1.3 93
2020-03-16 18:00:00 8.9 3 Este 13 Norte 0.2 1007.4 1.4 91
2020-03-16 17:00:00 9.6 0 Calma 10 Norte 0.1 1007 1.2 90
2020-03-16 16:00:00 9.5 5 Nordeste 14 Norte 0.1 1006.7 1.4 91
2020-03-16 15:00:00 9.7 8 Norte 15 Norte 0.2 1006 1.3 92
2020-03-16 14:00:00 9.5 3 Norte 13 Norte 1.3 1005.8 1.9 92
2020-03-16 13:00:00 9.5 3 Nordeste 15 Nordeste 1.1 1005.3 2.1 92
2020-03-16 12:00:00 9.1 5 Nordeste 23 Noroeste 3.3 1004.7 2.2 91
2020-03-16 11:00:00 8.8 3 Noroeste 34 Norte 3 1003.9 2.3 90
2020-03-16 10:00:00 8 9 Oeste 21 Noroeste 5.6 1003.2 2 93
2020-03-16 09:00:00 7.4 4 Sudoeste 12 Oeste 4.9 1002.5 1.7 93
2020-03-16 08:00:00 6.8 5 Sudoeste 13 Oeste 3.9 1001.6 1.3 94
2020-03-16 07:00:00 6.6 3 Sur 10 Sudeste 4.1 1001.2 1.3 93
2020-03-16 06:00:00 6.7 0 Calma 15 Sur 2 1000.8 0.6 93
2020-03-16 05:00:00 7 3 Sudoeste 12 Sudoeste 2.6 1000.3 0.5 93
2020-03-16 04:00:00 7.1 0 Calma 18 Sudoeste 3.3 999.9 -0.2 92
2020-03-16 03:00:00 7.4 4 Sudoeste 13 Sudoeste 0.8 1000.2 -0.4 91
2020-03-16 02:00:00 7.6 4 Sudoeste 10 Sudoeste 0.3 999.8 -0.2 92
2020-03-16 01:00:00 7.8 0 Calma 12 Sudoeste 1.2 1000.1 0.6 92
2020-03-16 00:00:00 8 4 Sudoeste 18 Sudoeste 2.3 1000.6 1.7 89
2020-03-15 23:00:00 8.4 4 Sudoeste 31 Oeste 0 1000 1.3 89
2020-03-15 22:00:00 8.7 8 Sudoeste 24 Sur 0.5 999.5 1.4 92
2020-03-15 21:00:00 9.5 0 Calma 7 Sudeste 1.3 998.9 1.5 90
2020-03-15 20:00:00 9.9 0 Calma 9 Nordeste 3.3 998.7 0.7 86
2020-03-15 19:00:00 11.4 3 Nordeste 14 Este 0 998.1 0.4 76
2020-03-15 18:00:00 11.8 9 Este 14 Este 0 997.4 0.5 75
2020-03-15 17:00:00 11.8 8 Nordeste 23 Norte 0 998 1.2 79
2020-03-15 16:00:00 12.4 13 Norte 31 Norte 0 997.7 0.7 77
2020-03-15 15:00:00 13.8 16 Norte 33 Norte 0 996.9 -1 73
2020-03-15 14:00:00 14.7 17 Norte 31 Norte 0 996.8 -1.5 64
2020-03-15 13:00:00 20.8 7 Sudoeste 15 Este 0 997 -1.7 36
2020-03-15 12:00:00 19.5 4 Oeste 25 Sudoeste 0 997.9 -1 41
2020-03-15 11:00:00 16.3 14 Sudoeste 29 Sudoeste 0 998.3 -0.4 48
2020-03-15 10:00:00 13.1 13 Sudoeste 33 Sudoeste 0 998.7 -0.6 54
2020-03-15 09:00:00 7 20 Sudoeste 40 Sudoeste 0 998.9 -0.8 73
2020-03-15 08:00:00 5.2 21 Sudoeste 40 Sudoeste 0 998.7 -1.6 78
2020-03-15 07:00:00 5 17 Sudoeste 32 Sudoeste 0 999.3 -1.8 84
2020-03-15 06:00:00 4 20 Sudoeste 41 Sudoeste 0 999.7 -2.5 89
2020-03-15 05:00:00 3.6 8 Sudoeste 18 Sudoeste 0 1000.3 -3.1 94
2020-03-15 04:00:00 3.4 0 Calma -- -- 0 1001.1 -3.3 94
2020-03-15 03:00:00 3.6 0 Calma -- -- 0 1002.2 -3.2 93
2020-03-15 02:00:00 3.9 0 Calma -- -- 0 1003.4 -2.9 92
2020-03-15 01:00:00 4.1 0 Calma 7 Sudoeste 0 1004.4 -2.2 90
2020-03-15 00:00:00 4.6 0 Calma 12 Sudoeste 0 1005.4 -1.6 89
2020-03-14 23:00:00 5.2 0 Calma -- -- 0 1006.3 -0.7 87
2020-03-14 22:00:00 6 0 Calma -- -- 0 1006.6 -0.5 83
2020-03-14 21:00:00 7.1 0 Calma -- -- 0 1007 -0.2 76
2020-03-14 20:00:00 8.2 0 Calma 7 Sudeste 0 1007 -0.3 71
2020-03-14 19:00:00 10.3 4 Sur 14 Norte 0 1007.1 -0.6 63
2020-03-14 18:00:00 11.2 12 Noroeste 20 Noroeste 0 1007.2 -1 60
2020-03-14 17:00:00 12.1 11 Norte 18 Norte 0 1007.3 -1.8 57
2020-03-14 16:00:00 12.7 9 Norte 17 Norte 0 1007.7 -2.2 55
2020-03-14 15:00:00 12.9 8 Norte 17 Norte 0 1008.2 -2.1 55
2020-03-14 14:00:00 12.9 7 Norte 17 Nordeste 0 1009.1 -1.9 57
2020-03-14 13:00:00 11.7 9 Norte 15 Norte 0 1009.9 -1.1 59
2020-03-14 12:00:00 11.7 0 Calma -- -- 0 1010.3 -0.5 72
2020-03-14 11:00:00 7.1 0 Calma -- -- 0 1011 0.7 97
2020-03-14 10:00:00 3.7 0 Calma -- -- 0 1011 1 97
2020-03-14 09:00:00 2.7 0 Calma 7 Sudeste 0 1010.8 1.2 96
2020-03-14 08:00:00 2.3 2 Sudeste 6 Sudeste 0 1010.3 0.9 96
2020-03-14 07:00:00 2.4 0 Calma -- -- 0 1010 0.6 96
2020-03-14 06:00:00 2.5 0 Calma 12 Sudoeste 0 1009.6 -0.4 95
2020-03-14 05:00:00 2.5 5 Sudoeste 11 Sudoeste 0 1009.4 -0.7 94
2020-03-14 04:00:00 2.4 0 Calma 9 Sudoeste 0 1009.4 -0.8 94
2020-03-14 03:00:00 2.8 0 Calma 8 Sudoeste 0 1010 -0.2 93
2020-03-14 02:00:00 3.1 0 Calma 8 Sudoeste 0 1010.1 -0.1 92
2020-03-14 01:00:00 3.6 0 Calma 7 Sudoeste 0 1010.2 0.2 90
2020-03-14 00:00:00 4.3 0 Calma 7 Sudoeste 0 1010.2 0.8 89
2020-03-13 23:00:00 5.1 3 Sudoeste 11 Sudoeste 0 1010.2 1.4 86
2020-03-13 22:00:00 5.6 0 Calma -- -- 0 1010 1 81
2020-03-13 21:00:00 6.9 0 Calma -- -- 0 1009.4 0.7 73
2020-03-13 20:00:00 8.5 0 Calma 9 Norte 0 1008.8 -0.1 68
2020-03-13 19:00:00 9.4 6 Norte 14 Norte 0 1009 -0.4 64
2020-03-13 18:00:00 10.3 8 Norte 16 Norte 0 1008.7 -0.9 56
2020-03-13 17:00:00 10.5 8 Norte 15 Nordeste 0.1 1008.9 -1 60
2020-03-13 16:00:00 11 10 Norte 17 Nordeste 0 1009.4 -1.1 59
2020-03-13 15:00:00 10.9 10 Norte 19 Norte 0 1009.6 -1.3 62
2020-03-13 14:00:00 10.7 12 Norte 21 Norte 0 1009.9 -1 64
2020-03-13 13:00:00 10.3 13 Norte 22 Noroeste 0 1010.5 -0.5 72
2020-03-13 12:00:00 9.7 9 Norte 17 Norte 0 1010.9 0 83
2020-03-13 11:00:00 9.4 6 Noroeste 13 Noroeste 0 1010.9 0.4 87
2020-03-13 10:00:00 8.7 0 Calma 8 Nordeste 0 1011 0.5 95
2020-03-13 09:00:00 8.5 5 Norte 13 Norte 0 1010.9 0.3 96
2020-03-13 08:00:00 8.5 8 Norte 13 Norte 0.4 1010.5 -0.1 96
2020-03-13 07:00:00 8.6 4 Norte 9 Norte 0.4 1010.5 0.1 95
2020-03-13 06:00:00 8.7 0 Calma -- -- 0.5 1010.6 -0.1 95
2020-03-13 05:00:00 8.8 0 Calma -- -- 0 1010.6 -0.4 95
2020-03-13 04:00:00 8.8 0 Calma 11 Nordeste 0.3 1010.4 -0.7 95
2020-03-13 03:00:00 9 3 Norte 10 Norte 0.2 1010.7 -0.6 95
2020-03-13 02:00:00 9.4 0 Calma 9 Norte 0.1 1011 -0.1 95
2020-03-13 01:00:00 9.3 4 Norte 12 Norte 0.3 1011.1 0.2 94
2020-03-13 00:00:00 9.3 0 Calma -- -- 0.2 1011.3 1.1 93
2020-03-12 23:00:00 9.4 0 Calma 7 Sudeste 0.1 1011.1 1.4 92
2020-03-12 22:00:00 9.7 0 Calma 8 Este 0 1010.9 1.8 92
2020-03-12 21:00:00 10 7 Nordeste 15 Norte 0.1 1010.2 1.8 92
2020-03-12 20:00:00 10.6 7 Norte 16 Norte 0.1 1009.7 1.4 92
2020-03-12 19:00:00 11.4 2 Nordeste 10 Norte 0 1009.1 0.7 87
2020-03-12 18:00:00 12.2 6 Nordeste 13 Norte 0 1008.4 -0.3 82
2020-03-12 17:00:00 12.4 6 Norte 14 Norte 0 1008.3 -0.7 80
2020-03-12 16:00:00 12.6 5 Nordeste 12 Norte 0 1008.4 -1.3 80
2020-03-12 15:00:00 12.6 4 Norte 11 Norte 0 1008.7 -0.9 83
2020-03-12 14:00:00 12.6 0 Calma -- -- 0 1009 -0.7 90
2020-03-12 13:00:00 12.3 0 Calma -- -- 0 1009.7 -0.1 96
2020-03-12 12:00:00 11.7 0 Calma -- -- 0 1009.6 0.1 96
2020-03-12 11:00:00 11 0 Calma -- -- 0 1009.7 0.3 96
2020-03-12 10:00:00 10.6 0 Calma -- -- 0.1 1009.8 0.9 96
2020-03-12 09:00:00 10.1 0 Calma -- -- 0 1009.5 0.6 96
2020-03-12 08:00:00 9.9 0 Calma -- -- 0 1009.4 0.7 96
2020-03-12 07:00:00 9.7 0 Calma -- -- 0 1008.9 0.3 96
2020-03-12 06:00:00 9.5 0 Calma 7 Sudoeste 0 1008.9 0.2 96
2020-03-12 05:00:00 9.2 0 Calma -- -- 0 1008.7 -0.2 95
2020-03-12 04:00:00 8.9 0 Calma -- -- 0 1008.6 -0.1 95
2020-03-12 03:00:00 8.5 0 Calma -- -- 0 1008.7 -0.1 95
2020-03-12 02:00:00 8.4 0 Calma -- -- 0 1008.9 0.3 94
2020-03-12 01:00:00 8.8 0 Calma -- -- 0 1008.7 0.3 93
2020-03-12 00:00:00 9.1 0 Calma -- -- 0 1008.8 0.6 92
2020-03-11 23:00:00 9.7 0 Calma -- -- 0 1008.6 1 91
2020-03-11 22:00:00 10.1 0 Calma -- -- 0 1008.4 1.5 89
2020-03-11 21:00:00 10.8 0 Calma -- -- 0 1008.2 1.7 86
2020-03-11 20:00:00 11.9 0 Calma 13 Norte 0 1007.6 1.3 81
2020-03-11 19:00:00 13.2 3 Nordeste 15 Nordeste 0 1006.9 0.4 74
2020-03-11 18:00:00 14.7 8 Norte 21 Nordeste 0 1006.5 -0.6 69
2020-03-11 17:00:00 15.5 12 Norte 21 Norte 0 1006.3 -1.9 67
2020-03-11 16:00:00 16 12 Norte 24 Nordeste 0 1006.5 -2.6 67
2020-03-11 15:00:00 16.3 10 Norte 22 Norte 0 1007.1 -3 66
2020-03-11 14:00:00 15.7 12 Norte 20 Norte 0 1008.2 -2.7 68
2020-03-11 13:00:00 15.3 10 Norte 16 Norte 0 1009.1 -2.2 70
2020-03-11 12:00:00 13.6 0 Calma -- -- 0 1010.1 -1.3 83
2020-03-11 11:00:00 10.4 0 Calma -- -- 0 1010.9 -0.6 98
2020-03-11 10:00:00 7.3 0 Calma -- -- 0 1011.3 0 98
2020-03-11 09:00:00 6.4 0 Calma -- -- 0 1011.4 0.1 97
2020-03-11 08:00:00 6.3 0 Calma -- -- 0 1011.5 0 97
2020-03-11 07:00:00 6.4 0 Calma 11 Sur 0 1011.3 -0.4 97
2020-03-11 06:00:00 6.6 2 Oeste 10 Sur 0 1011.3 -0.7 97
2020-03-11 05:00:00 6.6 0 Calma -- -- 0 1011.5 -1.2 97
2020-03-11 04:00:00 6.7 0 Calma -- -- 0 1011.7 -1.2 96
2020-03-11 03:00:00 6.1 0 Calma 12 Sudoeste 0 1012 -1.2 95
2020-03-11 02:00:00 6.2 0 Calma -- -- 0 1012.7 -0.3 95
2020-03-11 01:00:00 6.6 0 Calma -- -- 0 1012.9 0.2 94
2020-03-11 00:00:00 7.2 0 Calma 4 Sudoeste 0 1013.2 0.9 93
2020-03-10 23:00:00 7.7 0 Calma 6 Sudoeste 0 1013 0.8 92
2020-03-10 22:00:00 8.2 0 Calma 4 Sudoeste 0 1012.7 0.8 90
2020-03-10 21:00:00 9 0 Calma 7 Sudoeste 0 1012.3 0.3 86
2020-03-10 20:00:00 10 0 Calma 3 Sudoeste 0 1012.2 0.4 81
2020-03-10 19:00:00 11.4 2 Sudeste 10 Norte 0 1011.9 0.3 74
2020-03-10 18:00:00 12.1 8 Norte 18 Norte 0 1012 0.8 71
2020-03-10 17:00:00 12.5 11 Norte 20 Norte 0 1011.8 0.2 69
2020-03-10 16:00:00 12.9 13 Norte 27 Noroeste 0 1011.6 -0.3 69
2020-03-10 15:00:00 14.3 9 Norte 19 Nordeste 0 1011.2 -1.1 66
2020-03-10 14:00:00 14.3 8 Norte 14 Norte 0 1011.6 -1 65
2020-03-10 13:00:00 14.1 0 Calma -- -- 0 1011.9 -0.5 68
2020-03-10 12:00:00 11.8 0 Calma -- -- 0 1012.3 -0.2 83
2020-03-10 11:00:00 9.1 0 Calma -- -- 0 1012.6 0.3 97
2020-03-10 10:00:00 6.8 0 Calma -- -- 0 1012.4 0.3 98
2020-03-10 09:00:00 5.8 0 Calma 0 Calma 0 1012.5 0.2 97
2020-03-10 08:00:00 5.1 0 Calma -- -- 0 1012.3 -0.1 97
2020-03-10 07:00:00 5.3 0 Calma -- -- 0 1012.1 -0.5 97
2020-03-10 06:00:00 5.6 0 Calma 11 Sur 0 1012.3 -0.6 97
2020-03-10 05:00:00 6.1 0 Calma 10 Sudoeste 0 1012.4 -0.7 96
2020-03-10 04:00:00 6.2 5 Sudoeste 14 Sudoeste 0 1012.6 -0.8 96
2020-03-10 03:00:00 6.2 0 Calma 10 Sudoeste 0 1012.9 -0.8 95
2020-03-10 02:00:00 6.4 3 Sudoeste 10 Sudoeste 0 1013.1 -0.9 95
2020-03-10 01:00:00 6.4 0 Calma 8 Sudoeste 0 1013.4 -0.9 94
2020-03-10 00:00:00 7.3 3 Sudoeste 14 Sudoeste 0 1013.7 -0.9 93
2020-03-09 23:00:00 7.9 2 Sudoeste 8 Sudoeste 0 1014 -0.3 92
2020-03-09 22:00:00 8.2 0 Calma 9 Sudoeste 0 1014.3 0.3 91
2020-03-09 21:00:00 8.3 3 Sur 8 Sudoeste 0 1014.6 0.8 88
2020-03-09 20:00:00 9.4 2 Sudoeste 5 Oeste 0 1014.3 0.8 85
2020-03-09 19:00:00 10.2 3 Sudoeste 9 Sudoeste 0 1014 0.5 82
2020-03-09 18:00:00 10.4 0 Calma 13 Sudoeste 0 1013.8 -0.3 83
2020-03-09 17:00:00 9.7 2 Oeste 15 Sudoeste 0.3 1013.5 -0.9 86
2020-03-09 16:00:00 10.4 5 Sudoeste 23 Sudoeste 0.1 1013.5 -0.8 79
2020-03-09 15:00:00 10.5 6 Oeste 21 Oeste 0.5 1014.1 -0.5 79
2020-03-09 14:00:00 10.6 8 Oeste 24 Sudoeste 0.5 1014.4 0.4 79
2020-03-09 13:00:00 10.8 5 Oeste 22 Oeste 0.4 1014.3 0.5 78
2020-03-09 12:00:00 10.5 9 Oeste 22 Sur 0.2 1014.6 1.5 77
2020-03-09 11:00:00 11.2 4 Oeste 17 Sudoeste 0 1014 1.4 72
2020-03-09 10:00:00 10.2 0 Calma 23 Sudoeste 0 1013.8 1.4 78
2020-03-09 09:00:00 9.2 3 Sudoeste 21 Oeste 0.6 1013.1 1.1 81
2020-03-09 08:00:00 9.5 2 Sur 30 Oeste 0 1012.6 0.8 80
2020-03-09 07:00:00 9.3 6 Sudoeste 31 Oeste 0.2 1012.4 0.7 83
2020-03-09 06:00:00 8.6 4 Sudoeste 13 Sudoeste 0.2 1012 0 86
2020-03-09 05:00:00 8.6 6 Sudoeste 19 Sudoeste 0.9 1011.8 -0.1 86
2020-03-09 04:00:00 8.8 9 Sudoeste 22 Oeste 0.9 1011.7 -0.1 85
2020-03-09 03:00:00 9.2 9 Sudoeste 28 Oeste 1.2 1012 0.3 81
2020-03-09 02:00:00 9.8 7 Oeste 29 Sudoeste 0.3 1011.9 0.6 75
2020-03-09 01:00:00 10.1 2 Sudoeste 44 Sudoeste 0.4 1011.8 1 76
2020-03-09 00:00:00 10.5 5 Oeste 27 Oeste 0.1 1011.7 1 72
2020-03-08 23:00:00 11.1 8 Oeste 25 Oeste 0 1011.3 1.4 70
2020-03-08 22:00:00 11.4 6 Sudoeste 21 Sur 0 1010.8 1.4 71
2020-03-08 21:00:00 11.3 5 Oeste 33 Oeste 0 1010.7 1.9 71
2020-03-08 20:00:00 12.1 12 Oeste 37 Sudoeste 0 1009.9 2.3 69
2020-03-08 19:00:00 12.3 10 Oeste 27 Oeste 0 1009.4 1.7 69
2020-03-08 18:00:00 13 7 Noroeste 24 Noroeste 0 1008.8 0.9 71
2020-03-08 17:00:00 15 4 Noroeste 15 Noroeste 0 1007.6 -0.6 61
2020-03-08 16:00:00 15 7 Noroeste 15 Noroeste 0 1007.7 -1.1 60
2020-03-08 15:00:00 15.7 0 Calma 8 Sudoeste 0 1007.9 -1.8 56
2020-03-08 14:00:00 15.4 0 Calma 12 Sudoeste 0 1008.2 -1.9 60
2020-03-08 13:00:00 13.5 0 Calma -- -- 0 1008.8 -1.4 70
2020-03-08 12:00:00 10.3 0 Calma -- -- 0 1009.7 -0.3 87
2020-03-08 11:00:00 8.4 0 Calma 10 Sur 0 1010.1 0.4 98
2020-03-08 10:00:00 5.5 2 Sudoeste 15 Sudoeste 0 1010.2 0.8 98
2020-03-08 09:00:00 4.4 3 Sudoeste 12 Sudoeste 0 1010 0.7 98
2020-03-08 08:00:00 4 0 Calma 7 Sudoeste 0 1009.7 0.4 98
2020-03-08 07:00:00 4.2 2 Sur 8 Sudoeste 0 1009.4 -0.2 98
2020-03-08 06:00:00 4.2 3 Sudeste 10 Sudoeste 0 1009.3 -1.2 97
2020-03-08 05:00:00 4.4 4 Este 9 Sudeste 0 1009.3 -1.6 97
2020-03-08 04:00:00 4.8 0 Calma -- -- 0 1009.6 -1.5 96
2020-03-08 03:00:00 4.7 0 Calma -- -- 0 1010.5 -1.5 95
2020-03-08 02:00:00 4.7 0 Calma 6 Sur 0 1010.9 -1.7 95
2020-03-08 01:00:00 4.6 0 Calma 0 Calma 0 1011.1 -1.6 94
2020-03-08 00:00:00 5.1 0 Calma 4 Sur 0 1012 -0.7 92
2020-03-07 23:00:00 5.5 0 Calma 9 Sudoeste 0 1012.6 -0.3 91
2020-03-07 22:00:00 6.1 0 Calma 9 Sudoeste 0 1012.7 0 90
2020-03-07 21:00:00 7.3 3 Sudoeste 12 Sur 0 1012.7 0.4 87
2020-03-07 20:00:00 8.5 3 Sudoeste 11 Sudoeste 0 1012.9 0.7 83
2020-03-07 19:00:00 10.7 2 Sudoeste 10 Sudoeste 0 1012.7 0.4 78
2020-03-07 18:00:00 11.4 3 Sudoeste 16 Sudoeste 0 1012.3 -0.2 75
2020-03-07 17:00:00 11.5 4 Sudoeste 21 Oeste 0 1012.2 -0.4 77
2020-03-07 16:00:00 11.5 7 Noroeste 14 Oeste 0 1012.3 -0.7 78
2020-03-07 15:00:00 11.2 6 Oeste 32 Sudoeste 0.3 1012.5 -0.6 83
2020-03-07 14:00:00 11.2 7 Oeste 27 Noroeste 0 1012.6 -0.2 88
2020-03-07 13:00:00 10.2 3 Este 9 Nordeste 5.4 1013 0.6 92
2020-03-07 12:00:00 10.1 5 Nordeste 13 Este 1.3 1013.1 1 91
2020-03-07 11:00:00 9.8 0 Calma 12 Sudeste 2.3 1012.8 1.3 90
2020-03-07 10:00:00 9.6 0 Calma 9 Sur 0.1 1012.4 1.4 90
2020-03-07 09:00:00 9.3 2 Noroeste 16 Noroeste 0.1 1012.1 1.6 88
2020-03-07 08:00:00 9.1 3 Noroeste 19 Norte 0 1011.5 1.1 89
2020-03-07 07:00:00 8.6 0 Calma 7 Oeste 0 1011 0.6 92
2020-03-07 06:00:00 7.7 0 Calma 8 Nordeste 0.3 1010.5 -0.2 94
2020-03-07 05:00:00 7.1 0 Calma 15 Sudeste 0.8 1010.4 -0.3 93
2020-03-07 04:00:00 5.9 0 Calma 8 Sudoeste 0.2 1010.4 -0.6 92
2020-03-07 03:00:00 6.1 0 Calma 9 Sudoeste 0.2 1010.7 0 88
2020-03-07 02:00:00 6.7 4 Sudoeste 27 Oeste 0.5 1010.7 0.4 82
2020-03-07 01:00:00 7.1 6 Oeste 17 Sudoeste 1.2 1011 1.3 83
2020-03-07 00:00:00 7 2 Noroeste 16 Sudoeste 0.5 1010.7 1.6 81
2020-03-06 23:00:00 6.9 4 Sudeste 32 Noroeste 1.9 1010.3 2.2 81
2020-03-06 22:00:00 7.2 6 Oeste 25 Oeste 0 1009.7 2.5 77
2020-03-06 21:00:00 7.4 9 Sudoeste 34 Oeste 0 1009.1 2.8 78
2020-03-06 20:00:00 7.5 5 Sudoeste 30 Noroeste 2.3 1008.1 3.1 79
2020-03-06 19:00:00 6.5 3 Sudeste 42 Oeste 2.5 1007.2 2.8 80
2020-03-06 18:00:00 7.5 16 Sudoeste 44 Oeste 1.3 1006.3 3.1 78
2020-03-06 17:00:00 7.9 11 Sudoeste 37 Oeste 0.3 1005 2 75
2020-03-06 16:00:00 7.6 11 Sudoeste 58 Oeste 0.7 1004.4 1.8 76
2020-03-06 15:00:00 8 0 Calma 68 Sudoeste 1.4 1003.2 0.4 78
2020-03-06 14:00:00 8.3 13 Sudoeste 45 Sudoeste 1 1003 1.5 69
2020-03-06 13:00:00 8.8 11 Oeste 30 Noroeste 0.5 1002.6 2.7 71
2020-03-06 12:00:00 7.9 6 Sudoeste 30 Sudoeste 0.1 1002.8 3.4 73
2020-03-06 11:00:00 6.6 10 Sudoeste 45 Sudoeste 2.9 1001.5 3.1 78
2020-03-06 10:00:00 6.1 15 Sudoeste 36 Sudoeste 1 999.9 1.5 84
2020-03-06 09:00:00 5 8 Sudoeste 35 Sudoeste 3.1 999.4 1.9 86
2020-03-06 08:00:00 5.4 13 Sudoeste 46 Sudoeste 2.9 998.4 1.3 83
2020-03-06 07:00:00 6.5 15 Sudoeste 39 Oeste 1.8 998.4 2.1 79
2020-03-06 06:00:00 6.8 10 Sudoeste 42 Sudoeste 1.2 997.5 0.6 78
2020-03-06 05:00:00 8 14 Sudoeste 32 Sudoeste 0.4 997.1 0.1 74
2020-03-06 04:00:00 6.9 5 Sudoeste 18 Sudoeste 0 996.3 -1.4 82
2020-03-06 03:00:00 6.6 8 Sudoeste 17 Sudoeste 0 996.9 -1.6 83
2020-03-06 02:00:00 6.6 10 Sudoeste 21 Sudoeste 0 997 -2.2 82
2020-03-06 01:00:00 7.3 5 Sudoeste 15 Sudoeste 0 997.7 -1.9 77
2020-03-06 00:00:00 8.1 4 Sur 19 Sudeste 0 998.5 -1.1 76
2020-03-05 23:00:00 8.6 5 Sudoeste 19 Sudoeste 0 999.2 -0.1 77
2020-03-05 22:00:00 9 9 Sudoeste 18 Sudoeste 0.1 999.6 0.7 78
2020-03-05 21:00:00 8.7 9 Sudoeste 27 Sudoeste 0.7 999.6 1.1 79
2020-03-05 20:00:00 9.5 6 Sudoeste 31 Oeste 0.2 999.3 2.1 72
2020-03-05 19:00:00 10 8 Sudoeste 30 Oeste 0 998.9 2.5 71
2020-03-05 18:00:00 10.1 8 Sudoeste 41 Sudoeste 0.5 998.5 3.1 75
2020-03-05 17:00:00 10.6 7 Noroeste 35 Oeste 0 997.2 3.4 74
2020-03-05 16:00:00 10.5 4 Oeste 52 Noroeste 0.5 996.4 3.3 76
2020-03-05 15:00:00 10.5 18 Noroeste 46 Oeste 0.4 995.4 2.2 76
2020-03-05 14:00:00 13.1 7 Oeste 35 Noroeste 0 993.8 1.2 70
2020-03-05 13:00:00 13 2 Oeste 24 Sudoeste 0 993.1 0.3 77
2020-03-05 12:00:00 11.2 8 Sudoeste 27 Oeste 0.6 993.2 0.8 85
2020-03-05 11:00:00 10.4 4 Oeste 27 Noroeste 3.8 992.6 2.2 86
2020-03-05 10:00:00 10.2 0 Calma 26 Sudoeste 4.6 992.8 3.9 87
2020-03-05 09:00:00 10.9 9 Sudoeste 54 Oeste 4.4 992.4 2.5 85
2020-03-05 08:00:00 17 21 Sur 63 Sudoeste 0 990.4 -0.6 57
2020-03-05 07:00:00 16.9 18 Sur 57 Sudoeste 0.4 988.9 -2.4 59
2020-03-05 06:00:00 16.1 18 Sur 57 Nordeste 0.2 989.9 -3.5 63
2020-03-05 05:00:00 16.9 14 Sur 56 Sur 0 991 -4.1 59
2020-03-05 04:00:00 16.5 21 Sudeste 49 Sur 0 991.3 -4.5 59
2020-03-05 03:00:00 16.4 12 Sur 44 Sur 0 993.4 -3.6 59
2020-03-05 02:00:00 16.5 8 Sur 39 Sudoeste 0 995.1 -2.8 60
2020-03-05 01:00:00 16.5 13 Sudeste 41 Sur 0 995.8 -3.8 60
2020-03-05 00:00:00 16.2 11 Sur 50 Sudeste 0 997 -3 65
2020-03-04 23:00:00 11.7 0 Calma 6 Oeste 0 997.9 -2.6 92
2020-03-04 22:00:00 12 0 Calma 6 Sudoeste 0 999.6 -0.9 89
2020-03-04 21:00:00 12.7 0 Calma -- -- 0 1000 -0.5 85
2020-03-04 20:00:00 13.5 0 Calma 4 Este 0 1000.5 -0.2 79
2020-03-04 19:00:00 14.7 4 Sudeste 14 Norte 0 1000.5 -0.8 74
2020-03-04 18:00:00 15.5 7 Norte 17 Norte 0 1000.5 -1 72
2020-03-04 17:00:00 16.5 4 Norte 12 Norte 0 1000.7 -1.4 69
2020-03-04 16:00:00 16.7 6 Norte 12 Norte 0 1001.3 -1.8 66
2020-03-04 15:00:00 18.1 3 Sudeste 10 Sudeste 0 1001.5 -1.8 64
2020-03-04 14:00:00 17.1 6 Este 18 Noroeste 0 1002.1 -1.1 68
2020-03-04 13:00:00 16.1 6 Noroeste 20 Norte 0 1003.1 0.2 71
2020-03-04 12:00:00 14.4 7 Norte 12 Norte 0 1003.3 0.9 87
2020-03-04 11:00:00 12.9 0 Calma 11 Sudoeste 0 1003.2 1.3 94
2020-03-04 10:00:00 11.5 6 Sudoeste 21 Oeste 0 1002.9 1.2 96
2020-03-04 09:00:00 10.6 7 Sudoeste 15 Oeste 0.2 1002.4 0.5 96
2020-03-04 08:00:00 9.9 3 Oeste 14 Sudoeste 0.3 1001.9 -0.2 96
2020-03-04 07:00:00 9.3 0 Calma 10 Sudoeste 1.4 1001.7 -0.8 96
2020-03-04 06:00:00 8.9 7 Sudoeste 20 Sudoeste 1.7 1001.9 -1.1 96
2020-03-04 05:00:00 8.7 5 Sudoeste 19 Sudoeste 0.3 1002.1 -1.7 96
2020-03-04 04:00:00 8.2 0 Calma 9 Oeste 0.5 1002.5 -1.4 96
2020-03-04 03:00:00 7.9 2 Nordeste 9 Nordeste 0 1003 -1.8 96
2020-03-04 02:00:00 7.7 0 Calma 5 Este 0 1003.8 -1.1 95
2020-03-04 01:00:00 8.1 0 Calma -- -- 0 1003.9 -0.5 95
2020-03-04 00:00:00 8.4 0 Calma 4 Sudoeste 0.1 1004.8 1 95
2020-03-03 23:00:00 8.6 0 Calma 9 Este 0.4 1004.9 1.6 94
2020-03-03 22:00:00 8.8 3 Este 10 Sudeste 0.7 1004.4 2.5 92
2020-03-03 21:00:00 9.3 0 Calma 15 Noroeste 0.8 1003.8 3.5 87
2020-03-03 20:00:00 10.2 2 Norte 20 Noroeste 0 1003.3 4.8 80
2020-03-03 19:00:00 10.9 8 Noroeste 32 Oeste 0 1001.9 4.7 74
2020-03-03 18:00:00 11.8 18 Noroeste 38 Noroeste 0 1000.3 4.3 72
2020-03-03 17:00:00 13 11 Noroeste 46 Oeste 0 998.5 4.8 70
2020-03-03 16:00:00 14.4 17 Oeste 57 Oeste 0 997.2 4.3 65
2020-03-03 15:00:00 13.7 22 Oeste 89 Oeste 0 996 4.9 72
2020-03-03 14:00:00 14 8 Oeste 42 Noroeste 1.7 993.7 2.2 78
2020-03-03 13:00:00 13.9 16 Oeste 50 Oeste 1.4 992.9 1.6 74
2020-03-03 12:00:00 15.2 9 Sudoeste 31 Sudoeste 0 991.1 -1.4 64
2020-03-03 11:00:00 13.3 13 Sudoeste 36 Sudoeste 0 991.5 -3.5 70
2020-03-03 10:00:00 9.5 4 Sudoeste 49 Sur 0.3 991.3 -5.6 80
2020-03-03 09:00:00 7.2 15 Sur 43 Sur 0.9 992.5 -5.3 81
2020-03-03 08:00:00 6.7 8 Sudoeste 41 Sudeste 2 995 -3.5 82
2020-03-03 07:00:00 7.4 11 Sudoeste 30 Sudoeste 1 996.9 -2.2 76
2020-03-03 06:00:00 8 15 Sur 38 Sur 0 997.8 -2.2 73
2020-03-03 05:00:00 6.7 6 Sudoeste 18 Sur 0 998.5 -2.4 77
2020-03-03 04:00:00 6.5 3 Sudoeste 19 Sudoeste 0 999.1 -2.2 79
2020-03-03 03:00:00 6.4 6 Sudoeste 27 Sudoeste 0 1000 -1.3 83
2020-03-03 02:00:00 5.5 8 Sudoeste 18 Sudoeste 0 1000.9 -0.5 89
2020-03-03 01:00:00 5.5 7 Oeste 14 Sudoeste 0 1001.3 0.2 87
2020-03-03 00:00:00 6.1 7 Sudoeste 30 Sur 0.2 1001.3 0.7 83
2020-03-02 23:00:00 6 9 Sudoeste 33 Sudoeste 0.6 1001.4 1.7 83
2020-03-02 22:00:00 6.4 6 Sudoeste 28 Sur 0 1001.1 2.5 83
2020-03-02 21:00:00 6.2 9 Sudoeste 33 Oeste 2.5 1000.6 3.1 83
2020-03-02 20:00:00 7.3 10 Sudoeste 28 Sudoeste 0.2 999.7 3.2 79
2020-03-02 19:00:00 6.9 5 Oeste 20 Sudoeste 0.6 998.6 3.1 81
2020-03-02 18:00:00 6.8 8 Sudoeste 47 Sudoeste 0.9 997.5 2.9 79
2020-03-02 17:00:00 6.9 10 Sudoeste 37 Oeste 0.6 996.5 2.8 81
2020-03-02 16:00:00 6.6 9 Sudoeste 32 Sudoeste 1.2 995.5 2.1 82
2020-03-02 15:00:00 6.2 10 Sudoeste 36 Sudoeste 2.6 994.6 2.8 82
2020-03-02 14:00:00 6.5 7 Oeste 30 Noroeste 2.8 993.7 3.6 83
2020-03-02 13:00:00 6.1 8 Sudoeste 44 Noroeste 3.2 993.4 4.4 83
2020-03-02 12:00:00 8 13 Sudoeste 44 Oeste 0.2 991.8 4.4 73
2020-03-02 11:00:00 8.4 5 Sudoeste 39 Oeste 0.5 990.1 3.3 77
2020-03-02 10:00:00 8.6 10 Sudoeste 37 Sudoeste 0.1 989 5.8 74
2020-03-02 09:00:00 8 6 Sudoeste 38 Oeste 0.6 987.4 6.7 80
2020-03-02 08:00:00 7.6 12 Oeste 59 Oeste 2.2 986.8 7.6 80
2020-03-02 07:00:00 9.4 8 Sudoeste 40 Oeste 0.3 983.2 10.1 79
2020-03-02 06:00:00 9.7 11 Sur 62 Oeste 1.7 980.7 5.8 79
2020-03-02 05:00:00 9.5 17 Oeste 74 Sudoeste 8.6 979.2 1.7 82
2020-03-02 04:00:00 16 12 Sudoeste 49 Sur 0.1 973.1 -7.6 63
2020-03-02 03:00:00 15 12 Sur 55 Sur 0.1 974.9 -8.9 66
2020-03-02 02:00:00 14.1 10 Sudoeste 44 Sur 0 977.5 -9.3 69
2020-03-02 01:00:00 12.2 5 Sudoeste 30 Este 0 980.7 -7.3 75
2020-03-02 00:00:00 12 9 Sur 34 Sur 0.4 983.8 -6.2 75